createdAt,value
2023-01-15T00:02:28.544Z,99004.66
2023-01-15T00:04:57.921Z,99011.44
2023-01-15T00:07:27.377Z,99012.19
2023-01-15T00:09:57.035Z,99036.72
2023-01-15T00:12:26.545Z,99046.19
2023-01-15T00:14:58.081Z,99058.00
2023-01-15T00:17:30.247Z,99057.88
2023-01-15T00:19:59.703Z,99066.38
2023-01-15T00:22:29.117Z,99066.34
2023-01-15T00:25:10.994Z,99071.50
2023-01-15T00:27:45.896Z,99072.19
2023-01-15T00:30:17.208Z,99092.59
2023-01-15T00:32:49.389Z,99105.44
2023-01-15T00:35:20.443Z,99113.00
2023-01-15T00:37:49.992Z,99124.03
2023-01-15T00:40:21.339Z,99140.19
2023-01-15T00:42:54.465Z,99136.84
2023-01-15T00:45:24.514Z,99149.66
2023-01-15T00:47:56.730Z,99164.91
2023-01-15T00:50:26.095Z,99165.91
2023-01-15T00:52:55.467Z,99181.44
2023-01-15T00:55:25.831Z,99177.88
2023-01-15T00:57:55.476Z,99185.53
2023-01-15T01:00:25.165Z,99186.53
2023-01-15T01:02:57.191Z,99195.00
2023-01-15T01:05:26.622Z,99197.41
2023-01-15T01:07:56.020Z,99202.66
2023-01-15T01:10:25.466Z,99211.19
2023-01-15T01:12:56.158Z,99221.31
2023-01-15T01:15:25.971Z,99216.34
2023-01-15T01:17:58.166Z,99230.19
2023-01-15T01:20:27.568Z,99223.28
2023-01-15T01:22:56.981Z,99225.81
2023-01-15T01:25:26.373Z,99232.75
2023-01-15T01:27:55.768Z,99239.50
2023-01-15T01:30:25.453Z,99236.88
2023-01-15T01:32:54.828Z,99227.66
2023-01-15T01:35:26.853Z,99229.47
2023-01-15T01:37:56.288Z,99229.50
2023-01-15T01:40:25.662Z,99225.13
2023-01-15T01:42:56.997Z,99224.41
2023-01-15T01:45:29.084Z,99227.03
2023-01-15T01:48:00.844Z,99222.00
2023-01-15T01:50:34.339Z,99225.47
2023-01-15T01:53:07.154Z,99229.84
2023-01-15T01:55:37.907Z,99224.81
2023-01-15T01:58:12.654Z,99218.75
2023-01-15T02:00:44.658Z,99223.13
2023-01-15T02:03:14.261Z,99218.97
2023-01-15T02:05:50.282Z,99203.69
2023-01-15T02:08:19.667Z,99208.06
2023-01-15T02:10:52.209Z,99203.91
2023-01-15T02:13:25.841Z,99180.22
2023-01-15T02:16:01.939Z,99193.00
2023-01-15T02:18:34.064Z,99184.41
2023-01-15T02:21:10.579Z,99192.97
2023-01-15T02:24:04.720Z,99184.41
2023-01-15T02:26:57.879Z,99177.69
2023-01-15T02:29:32.229Z,99190.41
2023-01-15T02:32:02.768Z,99195.56
2023-01-15T02:34:34.750Z,99193.88
2023-01-15T02:37:06.795Z,99194.63
2023-01-15T02:39:37.844Z,99202.34
2023-01-15T02:42:11.727Z,99197.19
2023-01-15T02:44:44.426Z,99202.34
2023-01-15T02:47:14.389Z,99190.25
2023-01-15T02:49:44.676Z,99183.41
2023-01-15T02:52:18.205Z,99187.78
2023-01-15T02:54:50.545Z,99185.16
2023-01-15T02:57:30.650Z,99175.75
2023-01-15T03:00:01.614Z,99179.22
2023-01-15T03:02:35.116Z,99185.31
2023-01-15T03:05:08.378Z,99189.53
2023-01-15T03:07:40.673Z,99185.16
2023-01-15T03:10:11.016Z,99182.59
2023-01-15T03:12:59.737Z,99177.50
2023-01-15T03:15:42.809Z,99192.00
2023-01-15T03:18:14.928Z,99184.31
2023-01-15T03:20:46.766Z,99190.16
2023-01-15T03:23:17.017Z,99190.19
2023-01-15T03:25:49.205Z,99180.72
2023-01-15T03:28:26.500Z,99173.19
2023-01-15T03:30:56.023Z,99171.56
2023-01-15T03:33:26.549Z,99191.88
2023-01-15T03:35:58.630Z,99183.53
2023-01-15T03:38:30.678Z,99174.13
2023-01-15T03:41:06.253Z,99182.53
2023-01-15T03:43:44.240Z,99185.09
2023-01-15T03:46:32.041Z,99177.41
2023-01-15T03:49:07.289Z,99174.94
2023-01-15T03:51:41.349Z,99177.41
2023-01-15T03:54:14.566Z,99184.16
2023-01-15T03:56:50.721Z,99173.94
2023-01-15T03:59:26.939Z,99167.94
2023-01-15T04:01:57.050Z,99157.75
2023-01-15T04:04:27.546Z,99155.00
2023-01-15T04:06:58.162Z,99159.25
2023-01-15T04:09:27.602Z,99154.94
2023-01-15T04:11:57.061Z,99168.66
2023-01-15T04:14:30.317Z,99152.25
2023-01-15T04:16:59.702Z,99155.88
2023-01-15T04:19:29.227Z,99160.25
2023-01-15T04:21:58.641Z,99144.88
2023-01-15T04:24:28.490Z,99132.84
2023-01-15T04:26:57.871Z,99139.75
2023-01-15T04:29:30.201Z,99126.09
2023-01-15T04:31:59.966Z,99131.22
2023-01-15T04:34:30.431Z,99133.66
2023-01-15T04:37:00.355Z,99123.50
2023-01-15T04:39:29.757Z,99124.44
2023-01-15T04:42:11.783Z,99114.31
2023-01-15T04:44:43.861Z,99121.75
2023-01-15T04:47:13.262Z,99118.16
2023-01-15T04:49:42.665Z,99124.25
2023-01-15T04:52:12.173Z,99125.81
2023-01-15T04:54:41.589Z,99120.63
2023-01-15T04:57:10.998Z,99116.38
2023-01-15T04:59:43.003Z,99119.06
2023-01-15T05:02:15.020Z,99119.72
2023-01-15T05:04:44.657Z,99107.88
2023-01-15T05:07:14.121Z,99110.59
2023-01-15T05:09:43.558Z,99114.78
2023-01-15T05:12:16.154Z,99126.81
2023-01-15T05:14:48.132Z,99125.81
2023-01-15T05:17:17.520Z,99113.16
2023-01-15T05:19:46.891Z,99119.06
2023-01-15T05:22:16.263Z,99110.03
2023-01-15T05:24:45.640Z,99108.31
2023-01-15T05:27:15.014Z,99101.31
2023-01-15T05:29:44.389Z,99109.75
2023-01-15T05:32:16.452Z,99093.06
2023-01-15T05:34:46.351Z,99130.44
2023-01-15T05:37:15.751Z,99115.16
2023-01-15T05:39:45.173Z,99120.25
2023-01-15T05:42:14.570Z,99113.56
2023-01-15T05:44:44.397Z,99114.31
2023-01-15T05:47:16.418Z,99113.47
2023-01-15T05:49:45.878Z,99113.31
2023-01-15T05:52:15.274Z,99114.16
2023-01-15T05:54:44.889Z,99119.34
2023-01-15T05:57:15.372Z,99105.75
2023-01-15T05:59:44.881Z,99109.94
2023-01-15T06:02:16.835Z,99111.19
2023-01-15T06:04:46.197Z,99114.06
2023-01-15T06:07:17.422Z,99114.16
2023-01-15T06:09:46.933Z,99120.34
2023-01-15T06:12:16.341Z,99130.72
2023-01-15T06:14:45.743Z,99125.00
2023-01-15T06:17:17.778Z,99133.84
2023-01-15T06:19:47.178Z,99132.13
2023-01-15T06:22:18.266Z,99137.47
2023-01-15T06:24:47.653Z,99143.44
2023-01-15T06:27:17.019Z,99144.31
2023-01-15T06:29:46.439Z,99151.84
2023-01-15T06:32:18.944Z,99148.66
2023-01-15T06:34:48.380Z,99153.03
2023-01-15T06:37:17.786Z,99143.06
2023-01-15T06:39:47.214Z,99171.94
2023-01-15T06:42:31.498Z,99169.59
2023-01-15T06:45:13.351Z,99173.84
2023-01-15T06:47:45.609Z,99182.63
2023-01-15T06:50:15.938Z,99164.91
2023-01-15T06:52:45.352Z,99173.97
2023-01-15T06:55:14.889Z,99171.50
2023-01-15T06:57:44.423Z,99161.53
2023-01-15T07:00:15.808Z,99169.88
2023-01-15T07:02:47.793Z,99181.00
2023-01-15T07:05:17.236Z,99170.84
2023-01-15T07:07:46.637Z,99167.69
2023-01-15T07:10:16.028Z,99165.72
2023-01-15T07:12:45.404Z,99177.69
2023-01-15T07:15:14.916Z,99164.91
2023-01-15T07:17:46.962Z,99171.66
2023-01-15T07:20:16.472Z,99181.91
2023-01-15T07:22:45.829Z,99174.97
2023-01-15T07:25:15.312Z,99165.47
2023-01-15T07:27:44.713Z,99163.84
2023-01-15T07:30:15.676Z,99167.09
2023-01-15T07:32:47.649Z,99173.00
2023-01-15T07:35:17.120Z,99173.16
2023-01-15T07:37:46.738Z,99171.34
2023-01-15T07:40:16.131Z,99164.59
2023-01-15T07:42:58.018Z,99161.97
2023-01-15T07:45:39.896Z,99184.19
2023-01-15T07:48:26.796Z,99179.06
2023-01-15T07:50:56.179Z,99190.06
2023-01-15T07:53:25.608Z,99194.41
2023-01-15T07:55:55.033Z,99177.31
2023-01-15T07:58:24.462Z,99180.66
2023-01-15T08:00:53.885Z,99173.84
2023-01-15T08:03:25.930Z,99162.63
2023-01-15T08:05:56.908Z,99170.97
2023-01-15T08:08:26.531Z,99176.97
2023-01-15T08:11:08.412Z,99173.59
2023-01-15T08:13:50.349Z,99191.38
2023-01-15T08:16:19.918Z,99176.88
2023-01-15T08:18:51.958Z,99154.03
2023-01-15T08:21:21.613Z,99170.94
2023-01-15T08:23:51.185Z,99167.41
2023-01-15T08:26:20.593Z,99163.25
2023-01-15T08:28:50.002Z,99169.97
2023-01-15T08:31:19.620Z,99171.72
2023-01-15T08:33:49.160Z,99181.56
2023-01-15T08:36:21.215Z,99179.94
2023-01-15T08:38:51.941Z,99173.91
2023-01-15T08:41:21.486Z,99174.72
2023-01-15T08:43:50.849Z,99171.25
2023-01-15T08:46:20.253Z,99172.03
2023-01-15T08:48:49.658Z,99165.88
2023-01-15T08:51:22.140Z,99172.59
2023-01-15T08:53:51.549Z,99161.56
2023-01-15T08:56:22.304Z,99152.97
2023-01-15T08:58:51.841Z,99146.81
2023-01-15T09:01:21.354Z,99142.44
2023-01-15T09:03:50.934Z,99143.31
2023-01-15T09:06:22.882Z,99145.88
2023-01-15T09:08:52.304Z,99135.53
2023-01-15T09:11:21.734Z,99128.00
2023-01-15T09:13:51.755Z,99123.72
2023-01-15T09:16:21.238Z,99123.88
2023-01-15T09:18:50.685Z,99130.00
2023-01-15T09:21:25.469Z,99133.28
2023-01-15T09:23:55.154Z,99134.78
2023-01-15T09:26:30.196Z,99144.13
2023-01-15T09:28:59.906Z,99136.72
2023-01-15T09:31:29.832Z,99139.38
2023-01-15T09:33:59.540Z,99133.66
2023-01-15T09:36:33.211Z,99145.81
2023-01-15T09:39:03.702Z,99137.31
2023-01-15T09:41:53.841Z,99155.44
2023-01-15T09:44:33.913Z,99156.38
2023-01-15T09:47:11.263Z,99153.53
2023-01-15T09:49:51.446Z,99173.00
2023-01-15T09:52:28.819Z,99162.59
2023-01-15T09:55:05.970Z,99170.09
2023-01-15T09:57:35.891Z,99183.03
2023-01-15T10:00:06.506Z,99176.94
2023-01-15T10:02:41.094Z,99174.31
2023-01-15T10:05:14.589Z,99172.91
2023-01-15T10:07:54.237Z,99175.69
2023-01-15T10:10:26.902Z,99177.94
2023-01-15T10:13:01.078Z,99159.28
2023-01-15T10:15:37.499Z,99171.91
2023-01-15T10:18:08.791Z,99174.56
2023-01-15T10:20:51.956Z,99189.78
2023-01-15T10:23:37.450Z,99185.66
2023-01-15T10:26:18.470Z,99189.25
2023-01-15T10:28:57.990Z,99194.00
2023-01-15T10:31:33.597Z,99204.13
2023-01-15T10:34:17.703Z,99212.66
2023-01-15T10:36:50.714Z,99193.09
2023-01-15T10:39:29.091Z,99189.59
2023-01-15T10:42:05.009Z,99194.50
2023-01-15T10:44:43.115Z,99174.22
2023-01-15T10:47:17.250Z,99180.88
2023-01-15T10:49:49.112Z,99175.72
2023-01-15T10:52:26.717Z,99158.56
2023-01-15T10:55:06.890Z,99172.81
2023-01-15T10:57:46.332Z,99165.72
2023-01-15T11:00:17.154Z,99160.47
2023-01-15T11:02:48.464Z,99139.34
2023-01-15T11:05:19.678Z,99156.13
2023-01-15T11:08:19.416Z,99170.53
2023-01-15T11:10:45.961Z,99151.75
2023-01-15T11:13:35.754Z,99152.78
2023-01-15T11:16:17.712Z,99139.09
2023-01-15T11:19:00.320Z,99151.13
2023-01-15T11:21:30.700Z,99157.00
2023-01-15T11:24:01.427Z,99152.81
2023-01-15T11:26:34.684Z,99162.03
2023-01-15T11:29:15.744Z,99146.78
2023-01-15T11:31:45.438Z,99141.03
2023-01-15T11:34:22.381Z,99109.91
2023-01-15T11:36:51.907Z,99124.00
2023-01-15T11:39:30.968Z,99126.44
2023-01-15T11:42:24.920Z,99135.06
2023-01-15T11:45:08.606Z,99122.28
2023-01-15T11:47:50.480Z,99149.16
2023-01-15T11:50:33.897Z,99160.88
2023-01-15T11:53:03.336Z,99128.91
2023-01-15T11:55:32.883Z,99148.53
2023-01-15T11:58:04.903Z,99162.88
2023-01-15T12:00:38.923Z,99140.94
2023-01-15T12:03:16.310Z,99154.34
2023-01-15T12:05:49.249Z,99167.53
2023-01-15T12:08:25.684Z,99146.09
2023-01-15T12:11:25.947Z,99133.50
2023-01-15T12:14:05.109Z,99104.78
2023-01-15T12:16:40.669Z,99102.69
2023-01-15T12:19:16.906Z,99100.13
2023-01-15T12:22:16.960Z,99088.97
2023-01-15T12:25:10.371Z,99080.66
2023-01-15T12:28:01.349Z,99083.16
2023-01-15T12:30:39.261Z,99083.03
2023-01-15T12:33:18.088Z,99091.50
2023-01-15T12:35:51.882Z,99083.28
2023-01-15T12:38:23.985Z,99072.06
2023-01-15T12:40:56.198Z,99086.16
2023-01-15T12:43:41.166Z,99070.25
2023-01-15T12:46:16.155Z,99068.53
2023-01-15T12:48:51.351Z,99079.16
2023-01-15T12:51:26.438Z,99062.50
2023-01-15T12:53:58.887Z,99068.09
2023-01-15T12:56:31.997Z,99041.44
2023-01-15T12:59:06.244Z,99041.94
2023-01-15T13:01:45.312Z,99041.56
2023-01-15T13:04:18.538Z,99021.97
2023-01-15T13:06:51.062Z,99038.84
2023-01-15T13:09:31.515Z,99015.97
2023-01-15T13:12:01.200Z,99006.84
2023-01-15T13:14:30.624Z,99012.00
2023-01-15T13:17:06.867Z,98995.97
2023-01-15T13:19:41.366Z,98997.69
2023-01-15T13:22:15.595Z,99012.50
2023-01-15T13:24:59.123Z,98980.66
2023-01-15T13:27:37.572Z,98978.25
2023-01-15T13:30:30.707Z,98976.72
2023-01-15T13:33:09.957Z,98984.28
2023-01-15T13:35:45.468Z,98972.66
2023-01-15T13:38:19.166Z,98971.31
2023-01-15T13:40:52.061Z,98968.03
2023-01-15T13:43:36.147Z,98970.81
2023-01-15T13:46:07.154Z,98967.75
2023-01-15T13:48:45.496Z,98961.19
2023-01-15T13:51:37.961Z,98988.47
2023-01-15T13:54:08.125Z,98990.38
2023-01-15T13:56:40.099Z,98973.31
2023-01-15T13:59:29.634Z,98985.72
2023-01-15T14:01:59.245Z,98978.94
2023-01-15T14:04:39.993Z,98988.31
2023-01-15T14:07:23.527Z,98994.41
2023-01-15T14:09:53.124Z,98993.59
2023-01-15T14:12:34.946Z,99005.53
2023-01-15T14:15:16.080Z,99003.94
2023-01-15T14:18:08.797Z,99000.50
2023-01-15T14:20:59.103Z,98981.94
2023-01-15T14:23:40.250Z,98982.75
2023-01-15T14:26:15.042Z,98974.19
2023-01-15T14:29:03.659Z,98987.03
2023-01-15T14:31:54.012Z,98985.41
2023-01-15T14:34:27.106Z,98989.69
2023-01-15T14:37:01.908Z,98973.50
2023-01-15T14:39:39.752Z,98992.31
2023-01-15T14:42:24.632Z,99001.63
2023-01-15T14:45:06.414Z,98999.91
2023-01-15T14:47:38.763Z,98985.63
2023-01-15T14:50:27.914Z,98999.09
2023-01-15T14:53:04.334Z,98994.97
2023-01-15T14:55:33.821Z,98995.03
2023-01-15T14:58:08.951Z,98991.66
2023-01-15T15:00:41.142Z,99017.81
2023-01-15T15:03:19.303Z,99017.81
2023-01-15T15:05:49.510Z,99028.03
2023-01-15T15:08:22.208Z,99053.13
2023-01-15T15:10:56.393Z,99033.94
2023-01-15T15:13:31.700Z,99062.91
2023-01-15T15:16:09.003Z,99054.03
2023-01-15T15:18:44.781Z,99040.81
2023-01-15T15:21:19.185Z,99024.44
2023-01-15T15:23:57.981Z,98997.16
2023-01-15T15:26:29.270Z,98998.38
2023-01-15T15:29:00.330Z,98978.25
2023-01-15T15:31:31.143Z,98967.66
2023-01-15T15:34:01.503Z,98946.25
2023-01-15T15:36:32.998Z,99043.63
2023-01-15T15:39:07.493Z,98978.25
2023-01-15T15:41:51.700Z,98831.22
2023-01-15T15:44:52.474Z,98748.69
2023-01-15T15:47:38.205Z,98689.06
2023-01-15T15:50:08.719Z,98637.88
2023-01-15T15:52:38.297Z,98642.06
2023-01-15T15:55:18.633Z,98614.88
2023-01-15T15:57:48.797Z,98626.81
2023-01-15T16:00:21.095Z,98634.44
2023-01-15T16:02:50.718Z,98601.25
2023-01-15T16:05:26.071Z,98607.91
2023-01-15T16:07:56.752Z,98609.53
2023-01-15T16:10:33.023Z,98635.09
2023-01-15T16:13:05.239Z,98630.09
2023-01-15T16:15:37.408Z,98649.69
2023-01-15T16:18:07.383Z,98642.81
2023-01-15T16:20:36.994Z,98653.94
2023-01-15T16:23:07.613Z,98659.06
2023-01-15T16:25:41.467Z,98680.44
2023-01-15T16:28:25.899Z,98676.34
2023-01-15T16:30:59.139Z,98680.66
2023-01-15T16:33:29.433Z,98708.75
2023-01-15T16:35:59.820Z,98727.66
2023-01-15T16:38:29.587Z,98732.00
2023-01-15T16:41:02.210Z,98780.38
2023-01-15T16:43:32.945Z,98838.03
2023-01-15T16:46:07.778Z,98846.69
2023-01-15T16:48:45.713Z,98873.84
2023-01-15T16:51:33.826Z,98916.16
2023-01-15T16:54:04.666Z,98912.84
2023-01-15T16:56:55.328Z,98952.78
2023-01-15T17:00:03.405Z,98961.25
2023-01-15T17:02:45.778Z,98974.16
2023-01-15T17:05:26.220Z,98980.09
2023-01-15T17:07:57.902Z,98984.53
2023-01-15T17:10:31.409Z,98992.19
2023-01-15T17:13:03.380Z,98996.63
2023-01-15T17:15:40.809Z,99028.91
2023-01-15T17:18:27.936Z,99006.94
2023-01-15T17:20:57.612Z,99023.09
2023-01-15T17:23:30.079Z,99012.03
2023-01-15T17:25:59.711Z,99013.75
2023-01-15T17:28:31.746Z,99000.09
2023-01-15T17:31:03.051Z,99006.06
2023-01-15T17:33:32.524Z,99019.59
2023-01-15T17:36:01.936Z,99017.94
2023-01-15T17:38:31.383Z,99013.63
2023-01-15T17:41:07.091Z,99012.03
2023-01-15T17:43:39.203Z,98990.03
2023-01-15T17:46:09.200Z,99015.66
2023-01-15T17:48:38.959Z,99010.56
2023-01-15T17:51:11.847Z,99009.75
2023-01-15T17:53:41.409Z,99019.13
2023-01-15T17:56:24.044Z,99009.09
2023-01-15T17:59:08.522Z,99009.09
2023-01-15T18:01:54.558Z,99005.00
2023-01-15T18:04:39.915Z,99012.72
2023-01-15T18:07:10.795Z,99009.50
2023-01-15T18:09:40.744Z,98995.22
2023-01-15T18:12:10.594Z,99019.16
2023-01-15T18:14:42.612Z,99026.06
2023-01-15T18:17:12.034Z,99031.38
2023-01-15T18:19:41.567Z,99034.78
2023-01-15T18:22:12.772Z,99034.78
2023-01-15T18:24:42.285Z,99037.69
2023-01-15T18:27:11.701Z,99037.81
2023-01-15T18:29:43.786Z,99039.41
2023-01-15T18:32:13.488Z,99044.66
2023-01-15T18:34:42.876Z,99038.75
2023-01-15T18:37:13.312Z,99051.56
2023-01-15T18:39:42.678Z,99044.94
2023-01-15T18:42:30.799Z,99060.25
2023-01-15T18:45:15.271Z,99052.63
2023-01-15T18:47:44.676Z,99073.09
2023-01-15T18:50:14.062Z,99065.38
2023-01-15T18:52:52.853Z,99072.97
2023-01-15T18:55:23.945Z,99072.19
2023-01-15T18:57:53.388Z,99066.25
2023-01-15T19:00:27.069Z,99073.84
2023-01-15T19:02:56.537Z,99078.84
2023-01-15T19:05:25.980Z,99084.91
2023-01-15T19:07:55.992Z,99090.03
2023-01-15T19:10:25.559Z,99097.72
2023-01-15T19:12:54.985Z,99109.59
2023-01-15T19:15:39.479Z,99124.09
2023-01-15T19:18:21.613Z,99146.91
2023-01-15T19:20:51.027Z,99145.88
2023-01-15T19:23:20.663Z,99149.03
2023-01-15T19:25:51.475Z,99163.50
2023-01-15T19:28:22.673Z,99156.66
2023-01-15T19:31:07.040Z,99157.47
2023-01-15T19:33:37.179Z,99171.03
2023-01-15T19:36:07.407Z,99162.50
2023-01-15T19:38:38.055Z,99160.81
2023-01-15T19:41:24.749Z,99187.13
2023-01-15T19:44:06.634Z,99175.31
2023-01-15T19:46:54.543Z,99183.59
2023-01-15T19:49:37.862Z,99185.06
2023-01-15T19:52:22.546Z,99198.09
2023-01-15T19:55:02.189Z,99188.72
2023-01-15T19:57:31.687Z,99197.16
2023-01-15T20:00:01.248Z,99201.53
2023-01-15T20:02:33.270Z,99210.72
2023-01-15T20:05:02.925Z,99193.69
2023-01-15T20:07:32.517Z,99203.72
2023-01-15T20:10:02.063Z,99198.63
2023-01-15T20:12:43.932Z,99213.78
2023-01-15T20:15:13.844Z,99210.25
2023-01-15T20:17:45.963Z,99217.13
2023-01-15T20:20:16.025Z,99222.22
2023-01-15T20:22:45.587Z,99220.31
2023-01-15T20:25:15.330Z,99220.44
2023-01-15T20:27:44.989Z,99230.50
2023-01-15T20:30:16.362Z,99222.06
2023-01-15T20:32:49.053Z,99216.38
2023-01-15T20:35:20.985Z,99226.50
2023-01-15T20:37:50.858Z,99224.00
2023-01-15T20:40:21.731Z,99225.13
2023-01-15T20:43:03.740Z,99232.72
2023-01-15T20:45:34.658Z,99228.63
2023-01-15T20:48:19.615Z,99238.88
2023-01-15T20:51:00.958Z,99233.00
2023-01-15T20:53:33.529Z,99235.47
2023-01-15T20:56:03.307Z,99228.75
2023-01-15T20:58:32.903Z,99233.13
2023-01-15T21:01:06.513Z,99231.31
2023-01-15T21:03:39.391Z,99239.84
2023-01-15T21:06:10.230Z,99236.47
2023-01-15T21:08:40.983Z,99246.03
2023-01-15T21:11:10.432Z,99244.22
2023-01-15T21:13:45.323Z,99249.31
2023-01-15T21:16:16.407Z,99240.78
2023-01-15T21:18:49.216Z,99251.06
2023-01-15T21:21:21.745Z,99241.66
2023-01-15T21:23:51.165Z,99244.13
2023-01-15T21:26:20.700Z,99245.88
2023-01-15T21:28:50.125Z,99250.09
2023-01-15T21:31:19.523Z,99235.75
2023-01-15T21:33:51.511Z,99243.50
2023-01-15T21:36:20.893Z,99252.88
2023-01-15T21:38:54.356Z,99246.03
2023-01-15T21:41:45.773Z,99244.34
2023-01-15T21:44:29.295Z,99244.53
2023-01-15T21:46:58.724Z,99250.44
2023-01-15T21:49:33.142Z,99262.41
2023-01-15T21:52:03.566Z,99258.19
2023-01-15T21:54:33.568Z,99257.28
2023-01-15T21:57:03.333Z,99248.88
2023-01-15T21:59:33.225Z,99253.72
2023-01-15T22:02:03.562Z,99250.31
2023-01-15T22:04:37.676Z,99251.19
2023-01-15T22:07:07.102Z,99246.81
2023-01-15T22:09:36.517Z,99248.28
2023-01-15T22:12:06.510Z,99246.31
2023-01-15T22:14:36.561Z,99247.91
2023-01-15T22:17:06.819Z,99246.91
2023-01-15T22:19:41.755Z,99230.34
2023-01-15T22:22:13.207Z,99221.84
2023-01-15T22:24:43.619Z,99235.09
2023-01-15T22:27:17.293Z,99238.59
2023-01-15T22:29:46.810Z,99231.53
2023-01-15T22:32:17.249Z,99225.34
2023-01-15T22:34:49.736Z,99227.88
2023-01-15T22:37:19.435Z,99232.09
2023-01-15T22:39:49.980Z,99224.44
2023-01-15T22:42:28.274Z,99222.56
2023-01-15T22:45:00.659Z,99216.59
2023-01-15T22:47:31.021Z,99226.69
2023-01-15T22:50:03.017Z,99214.97
2023-01-15T22:52:35.626Z,99225.88
2023-01-15T22:55:05.010Z,99209.06
2023-01-15T22:57:34.490Z,99226.91
2023-01-15T23:00:06.851Z,99212.91
2023-01-15T23:02:48.553Z,99222.19
2023-01-15T23:05:20.570Z,99219.72
2023-01-15T23:07:50.235Z,99228.31
2023-01-15T23:10:19.755Z,99229.13
2023-01-15T23:12:49.172Z,99230.06
2023-01-15T23:15:18.598Z,99236.03
2023-01-15T23:17:48.162Z,99230.22
2023-01-15T23:20:21.666Z,99232.75
2023-01-15T23:22:51.067Z,99242.00
2023-01-15T23:25:20.853Z,99249.00
2023-01-15T23:27:50.369Z,99250.72
2023-01-15T23:30:20.047Z,99250.97
2023-01-15T23:32:49.559Z,99256.28
2023-01-15T23:35:21.698Z,99265.97
2023-01-15T23:37:51.140Z,99260.22
2023-01-15T23:40:21.595Z,99272.97
2023-01-15T23:43:18.149Z,99284.09
2023-01-15T23:46:02.991Z,99285.94
2023-01-15T23:48:32.727Z,99289.50
2023-01-15T23:51:04.737Z,99292.03
2023-01-15T23:53:34.247Z,99299.84
2023-01-15T23:56:04.894Z,99298.31
2023-01-15T23:58:34.834Z,99299.19
